sensor_id;sensor_type;location;lat;lon;timestamp;temperature;humidity
12811;DHT22;6470;47.654;7.896;2023-07-29T00:01:34;16.70;99.90
12811;DHT22;6470;47.654;7.896;2023-07-29T00:03:59;16.80;99.90
12811;DHT22;6470;47.654;7.896;2023-07-29T00:06:25;17.20;99.90
12811;DHT22;6470;47.654;7.896;2023-07-29T00:08:51;16.30;99.90
12811;DHT22;6470;47.654;7.896;2023-07-29T00:11:16;16.20;99.90
12811;DHT22;6470;47.654;7.896;2023-07-29T00:13:42;16.70;99.90
12811;DHT22;6470;47.654;7.896;2023-07-29T00:16:08;16.80;99.90
12811;DHT22;6470;47.654;7.896;2023-07-29T00:18:33;16.60;99.90
12811;DHT22;6470;47.654;7.896;2023-07-29T00:20:59;15.80;99.90
12811;DHT22;6470;47.654;7.896;2023-07-29T00:23:25;16.00;99.90
12811;DHT22;6470;47.654;7.896;2023-07-29T00:25:50;16.70;99.90
12811;DHT22;6470;47.654;7.896;2023-07-29T00:28:16;16.00;99.90
12811;DHT22;6470;47.654;7.896;2023-07-29T00:30:42;16.90;99.90
12811;DHT22;6470;47.654;7.896;2023-07-29T00:33:07;16.10;99.90
12811;DHT22;6470;47.654;7.896;2023-07-29T00:35:34;16.50;99.90
12811;DHT22;6470;47.654;7.896;2023-07-29T00:38:00;16.20;99.90
12811;DHT22;6470;47.654;7.896;2023-07-29T00:40:28;16.30;99.90
12811;DHT22;6470;47.654;7.896;2023-07-29T00:45:20;16.80;99.90
12811;DHT22;6470;47.654;7.896;2023-07-29T00:47:46;17.10;99.90
12811;DHT22;6470;47.654;7.896;2023-07-29T00:50:13;16.90;99.90
12811;DHT22;6470;47.654;7.896;2023-07-29T00:52:40;16.50;99.90
12811;DHT22;6470;47.654;7.896;2023-07-29T00:55:07;16.30;99.90
12811;DHT22;6470;47.654;7.896;2023-07-29T00:57:33;16.40;99.90
12811;DHT22;6470;47.654;7.896;2023-07-29T01:00:01;16.20;99.90
12811;DHT22;6470;47.654;7.896;2023-07-29T01:04:57;17.10;99.90
12811;DHT22;6470;47.654;7.896;2023-07-29T01:07:52;16.50;99.90
12811;DHT22;6470;47.654;7.896;2023-07-29T01:10:54;16.40;99.90
12811;DHT22;6470;47.654;7.896;2023-07-29T01:13:41;15.50;99.90
12811;DHT22;6470;47.654;7.896;2023-07-29T01:16:30;16.10;99.90
12811;DHT22;6470;47.654;7.896;2023-07-29T01:18:58;15.90;99.90
12811;DHT22;6470;47.654;7.896;2023-07-29T01:21:30;16.20;99.90
12811;DHT22;6470;47.654;7.896;2023-07-29T01:23:59;16.80;99.90
12811;DHT22;6470;47.654;7.896;2023-07-29T01:26:25;16.70;99.90
12811;DHT22;6470;47.654;7.896;2023-07-29T01:28:51;16.30;99.90
12811;DHT22;6470;47.654;7.896;2023-07-29T01:31:27;16.60;99.90
12811;DHT22;6470;47.654;7.896;2023-07-29T01:34:09;16.40;99.90
12811;DHT22;6470;47.654;7.896;2023-07-29T01:36:37;13.70;99.90
12811;DHT22;6470;47.654;7.896;2023-07-29T01:41:34;16.70;99.90
12811;DHT22;6470;47.654;7.896;2023-07-29T01:44:01;15.80;99.90
12811;DHT22;6470;47.654;7.896;2023-07-29T01:46:27;16.50;99.90
12811;DHT22;6470;47.654;7.896;2023-07-29T01:48:52;16.80;99.90
12811;DHT22;6470;47.654;7.896;2023-07-29T01:51:19;16.60;99.90
12811;DHT22;6470;47.654;7.896;2023-07-29T01:53:46;16.70;99.90
12811;DHT22;6470;47.654;7.896;2023-07-29T01:56:12;14.10;99.90
12811;DHT22;6470;47.654;7.896;2023-07-29T01:58:37;16.60;99.90
12811;DHT22;6470;47.654;7.896;2023-07-29T02:01:03;16.60;99.90
12811;DHT22;6470;47.654;7.896;2023-07-29T02:03:29;16.90;99.90
12811;DHT22;6470;47.654;7.896;2023-07-29T02:05:55;16.70;99.90
12811;DHT22;6470;47.654;7.896;2023-07-29T02:08:20;17.00;99.90
12811;DHT22;6470;47.654;7.896;2023-07-29T02:13:14;16.80;99.90
12811;DHT22;6470;47.654;7.896;2023-07-29T02:15:40;17.20;99.90
12811;DHT22;6470;47.654;7.896;2023-07-29T02:18:05;16.60;99.90
12811;DHT22;6470;47.654;7.896;2023-07-29T02:20:32;16.90;99.90
12811;DHT22;6470;47.654;7.896;2023-07-29T02:22:58;16.70;99.90
12811;DHT22;6470;47.654;7.896;2023-07-29T02:25:24;16.70;99.90
12811;DHT22;6470;47.654;7.896;2023-07-29T02:27:49;16.40;99.90
12811;DHT22;6470;47.654;7.896;2023-07-29T02:30:15;17.00;99.90
12811;DHT22;6470;47.654;7.896;2023-07-29T02:32:41;14.50;99.90
12811;DHT22;6470;47.654;7.896;2023-07-29T02:35:07;17.30;99.90
12811;DHT22;6470;47.654;7.896;2023-07-29T02:37:33;17.00;99.90
12811;DHT22;6470;47.654;7.896;2023-07-29T02:42:24;16.90;99.90
12811;DHT22;6470;47.654;7.896;2023-07-29T02:44:50;16.60;99.90
12811;DHT22;6470;47.654;7.896;2023-07-29T02:47:16;16.70;99.90
12811;DHT22;6470;47.654;7.896;2023-07-29T02:49:41;16.90;99.90
12811;DHT22;6470;47.654;7.896;2023-07-29T02:52:07;16.50;99.90
12811;DHT22;6470;47.654;7.896;2023-07-29T02:54:33;16.60;99.90
12811;DHT22;6470;47.654;7.896;2023-07-29T02:56:58;16.70;99.90
12811;DHT22;6470;47.654;7.896;2023-07-29T02:59:24;17.00;99.90
12811;DHT22;6470;47.654;7.896;2023-07-29T03:01:50;17.40;99.90
12811;DHT22;6470;47.654;7.896;2023-07-29T03:04:15;17.10;99.90
12811;DHT22;6470;47.654;7.896;2023-07-29T03:06:41;16.20;99.90
12811;DHT22;6470;47.654;7.896;2023-07-29T03:11:33;17.30;99.90
12811;DHT22;6470;47.654;7.896;2023-07-29T03:13:59;17.00;99.90
12811;DHT22;6470;47.654;7.896;2023-07-29T03:16:26;17.60;99.90
12811;DHT22;6470;47.654;7.896;2023-07-29T03:18:51;17.50;99.90
12811;DHT22;6470;47.654;7.896;2023-07-29T03:21:17;17.00;99.90
12811;DHT22;6470;47.654;7.896;2023-07-29T03:23:43;17.50;99.90
12811;DHT22;6470;47.654;7.896;2023-07-29T03:26:08;14.00;99.90
12811;DHT22;6470;47.654;7.896;2023-07-29T03:28:39;17.60;99.90
12811;DHT22;6470;47.654;7.896;2023-07-29T03:31:05;16.80;99.90
12811;DHT22;6470;47.654;7.896;2023-07-29T03:33:31;16.80;99.90
12811;DHT22;6470;47.654;7.896;2023-07-29T03:35:56;17.10;99.90
12811;DHT22;6470;47.654;7.896;2023-07-29T03:38:22;16.70;99.90
12811;DHT22;6470;47.654;7.896;2023-07-29T03:40:48;16.70;99.90
12811;DHT22;6470;47.654;7.896;2023-07-29T03:43:14;16.60;99.90
12811;DHT22;6470;47.654;7.896;2023-07-29T03:45:40;16.70;99.90
12811;DHT22;6470;47.654;7.896;2023-07-29T03:48:06;16.70;99.90
12811;DHT22;6470;47.654;7.896;2023-07-29T03:50:34;16.70;99.90
12811;DHT22;6470;47.654;7.896;2023-07-29T03:53:04;16.90;99.90
12811;DHT22;6470;47.654;7.896;2023-07-29T03:55:30;13.80;99.90
12811;DHT22;6470;47.654;7.896;2023-07-29T03:57:57;16.70;99.90
12811;DHT22;6470;47.654;7.896;2023-07-29T04:00:23;17.30;99.90
12811;DHT22;6470;47.654;7.896;2023-07-29T04:02:49;17.30;99.90
12811;DHT22;6470;47.654;7.896;2023-07-29T04:05:15;17.20;99.90
12811;DHT22;6470;47.654;7.896;2023-07-29T04:07:40;16.40;99.90
12811;DHT22;6470;47.654;7.896;2023-07-29T04:10:07;16.20;99.90
12811;DHT22;6470;47.654;7.896;2023-07-29T04:14:59;16.50;99.90
12811;DHT22;6470;47.654;7.896;2023-07-29T04:17:24;16.70;99.90
12811;DHT22;6470;47.654;7.896;2023-07-29T04:19:50;16.80;99.90
12811;DHT22;6470;47.654;7.896;2023-07-29T04:22:16;16.60;99.90
12811;DHT22;6470;47.654;7.896;2023-07-29T04:24:42;16.80;99.90
12811;DHT22;6470;47.654;7.896;2023-07-29T04:27:08;16.90;99.90
12811;DHT22;6470;47.654;7.896;2023-07-29T04:29:33;16.40;99.90
12811;DHT22;6470;47.654;7.896;2023-07-29T04:32:04;17.20;99.90
12811;DHT22;6470;47.654;7.896;2023-07-29T04:34:30;17.00;99.90
12811;DHT22;6470;47.654;7.896;2023-07-29T04:36:56;14.30;99.90
12811;DHT22;6470;47.654;7.896;2023-07-29T04:39:21;16.90;99.90
12811;DHT22;6470;47.654;7.896;2023-07-29T04:41:47;17.40;99.90
12811;DHT22;6470;47.654;7.896;2023-07-29T04:44:13;17.90;99.90
12811;DHT22;6470;47.654;7.896;2023-07-29T04:46:38;17.00;99.90
12811;DHT22;6470;47.654;7.896;2023-07-29T04:49:04;17.30;99.90
12811;DHT22;6470;47.654;7.896;2023-07-29T04:51:30;16.80;99.90
12811;DHT22;6470;47.654;7.896;2023-07-29T04:53:57;17.30;99.90
12811;DHT22;6470;47.654;7.896;2023-07-29T04:56:23;16.80;99.90
12811;DHT22;6470;47.654;7.896;2023-07-29T05:01:15;16.90;99.90
12811;DHT22;6470;47.654;7.896;2023-07-29T05:03:41;17.30;99.90
12811;DHT22;6470;47.654;7.896;2023-07-29T05:06:06;17.40;99.90
12811;DHT22;6470;47.654;7.896;2023-07-29T05:08:32;17.40;99.90
12811;DHT22;6470;47.654;7.896;2023-07-29T05:10:58;17.40;99.90
12811;DHT22;6470;47.654;7.896;2023-07-29T05:13:24;17.80;99.90
12811;DHT22;6470;47.654;7.896;2023-07-29T05:15:50;17.60;99.90
12811;DHT22;6470;47.654;7.896;2023-07-29T05:18:16;17.90;99.90
12811;DHT22;6470;47.654;7.896;2023-07-29T05:20:42;18.10;99.90
12811;DHT22;6470;47.654;7.896;2023-07-29T05:23:08;17.70;99.90
12811;DHT22;6470;47.654;7.896;2023-07-29T05:25:34;15.10;99.90
12811;DHT22;6470;47.654;7.896;2023-07-29T05:28:03;18.00;99.90
12811;DHT22;6470;47.654;7.896;2023-07-29T05:30:30;17.60;99.90
12811;DHT22;6470;47.654;7.896;2023-07-29T05:33:03;18.10;99.90
12811;DHT22;6470;47.654;7.896;2023-07-29T05:35:30;18.00;99.90
12811;DHT22;6470;47.654;7.896;2023-07-29T05:37:56;19.30;99.90
12811;DHT22;6470;47.654;7.896;2023-07-29T05:40:21;16.50;99.90
12811;DHT22;6470;47.654;7.896;2023-07-29T05:42:47;18.80;99.90
12811;DHT22;6470;47.654;7.896;2023-07-29T05:45:13;19.10;99.90
12811;DHT22;6470;47.654;7.896;2023-07-29T05:47:39;18.40;99.90
12811;DHT22;6470;47.654;7.896;2023-07-29T05:50:05;18.50;99.90
12811;DHT22;6470;47.654;7.896;2023-07-29T05:52:31;19.10;99.90
12811;DHT22;6470;47.654;7.896;2023-07-29T05:54:57;18.50;99.90
12811;DHT22;6470;47.654;7.896;2023-07-29T05:57:23;18.50;99.90
12811;DHT22;6470;47.654;7.896;2023-07-29T05:59:48;18.70;99.90
12811;DHT22;6470;47.654;7.896;2023-07-29T06:02:14;19.00;99.90
12811;DHT22;6470;47.654;7.896;2023-07-29T06:04:40;19.20;99.90
12811;DHT22;6470;47.654;7.896;2023-07-29T06:07:06;18.60;99.90
12811;DHT22;6470;47.654;7.896;2023-07-29T06:09:32;19.30;99.90
12811;DHT22;6470;47.654;7.896;2023-07-29T06:11:58;18.90;99.90
12811;DHT22;6470;47.654;7.896;2023-07-29T06:14:23;19.00;99.90
12811;DHT22;6470;47.654;7.896;2023-07-29T06:16:49;18.70;99.90
12811;DHT22;6470;47.654;7.896;2023-07-29T06:21:41;19.10;99.90
12811;DHT22;6470;47.654;7.896;2023-07-29T06:24:07;19.20;99.90
12811;DHT22;6470;47.654;7.896;2023-07-29T06:26:33;19.70;99.90
12811;DHT22;6470;47.654;7.896;2023-07-29T06:28:58;19.70;99.90
12811;DHT22;6470;47.654;7.896;2023-07-29T06:31:24;19.70;99.90
12811;DHT22;6470;47.654;7.896;2023-07-29T06:33:50;19.50;99.90
12811;DHT22;6470;47.654;7.896;2023-07-29T06:36:15;20.00;99.90
12811;DHT22;6470;47.654;7.896;2023-07-29T06:38:41;20.00;99.90
12811;DHT22;6470;47.654;7.896;2023-07-29T06:41:07;19.50;99.90
12811;DHT22;6470;47.654;7.896;2023-07-29T06:43:33;19.60;99.90
12811;DHT22;6470;47.654;7.896;2023-07-29T06:45:58;20.30;99.90
12811;DHT22;6470;47.654;7.896;2023-07-29T06:48:24;21.30;99.90
12811;DHT22;6470;47.654;7.896;2023-07-29T06:50:50;20.40;99.90
12811;DHT22;6470;47.654;7.896;2023-07-29T06:53:16;21.00;99.90
12811;DHT22;6470;47.654;7.896;2023-07-29T06:55:42;21.00;99.90
12811;DHT22;6470;47.654;7.896;2023-07-29T06:58:08;20.60;99.90
12811;DHT22;6470;47.654;7.896;2023-07-29T07:00:34;20.90;99.90
12811;DHT22;6470;47.654;7.896;2023-07-29T07:03:00;21.10;99.90
12811;DHT22;6470;47.654;7.896;2023-07-29T07:07:52;21.40;99.90
12811;DHT22;6470;47.654;7.896;2023-07-29T07:10:18;21.80;99.90
12811;DHT22;6470;47.654;7.896;2023-07-29T07:12:43;22.50;99.90
12811;DHT22;6470;47.654;7.896;2023-07-29T07:15:09;22.10;99.90
12811;DHT22;6470;47.654;7.896;2023-07-29T07:17:35;22.50;99.90
12811;DHT22;6470;47.654;7.896;2023-07-29T07:20:01;23.10;99.90
12811;DHT22;6470;47.654;7.896;2023-07-29T07:22:26;23.50;99.90
12811;DHT22;6470;47.654;7.896;2023-07-29T07:24:52;23.30;99.90
12811;DHT22;6470;47.654;7.896;2023-07-29T07:27:18;22.70;99.90
12811;DHT22;6470;47.654;7.896;2023-07-29T07:29:43;22.70;99.90
12811;DHT22;6470;47.654;7.896;2023-07-29T07:32:09;22.50;99.90
12811;DHT22;6470;47.654;7.896;2023-07-29T07:34:35;22.60;99.90
12811;DHT22;6470;47.654;7.896;2023-07-29T07:37:00;22.40;99.90
12811;DHT22;6470;47.654;7.896;2023-07-29T07:39:26;22.30;99.90
12811;DHT22;6470;47.654;7.896;2023-07-29T07:41:52;22.50;99.90
12811;DHT22;6470;47.654;7.896;2023-07-29T07:44:18;22.00;99.90
12811;DHT22;6470;47.654;7.896;2023-07-29T07:46:45;22.30;99.90
12811;DHT22;6470;47.654;7.896;2023-07-29T07:49:11;22.70;99.90
12811;DHT22;6470;47.654;7.896;2023-07-29T07:51:38;22.50;99.90
12811;DHT22;6470;47.654;7.896;2023-07-29T07:54:04;21.90;99.90
12811;DHT22;6470;47.654;7.896;2023-07-29T07:56:29;22.40;99.90
12811;DHT22;6470;47.654;7.896;2023-07-29T07:58:55;22.10;99.90
12811;DHT22;6470;47.654;7.896;2023-07-29T08:01:20;23.10;99.90
12811;DHT22;6470;47.654;7.896;2023-07-29T08:03:46;23.30;99.90
12811;DHT22;6470;47.654;7.896;2023-07-29T08:06:12;23.50;99.90
12811;DHT22;6470;47.654;7.896;2023-07-29T08:08:37;22.70;99.90
12811;DHT22;6470;47.654;7.896;2023-07-29T08:11:03;22.60;99.90
12811;DHT22;6470;47.654;7.896;2023-07-29T08:13:29;22.40;99.90
12811;DHT22;6470;47.654;7.896;2023-07-29T08:18:21;22.40;99.90
12811;DHT22;6470;47.654;7.896;2023-07-29T08:20:54;22.80;99.90
12811;DHT22;6470;47.654;7.896;2023-07-29T08:23:21;22.90;99.90
12811;DHT22;6470;47.654;7.896;2023-07-29T08:25:54;22.50;99.90
12811;DHT22;6470;47.654;7.896;2023-07-29T08:28:22;22.60;99.90
12811;DHT22;6470;47.654;7.896;2023-07-29T08:30:48;23.40;99.90
12811;DHT22;6470;47.654;7.896;2023-07-29T08:33:14;23.70;99.90
12811;DHT22;6470;47.654;7.896;2023-07-29T08:35:40;23.10;99.90
12811;DHT22;6470;47.654;7.896;2023-07-29T08:38:06;22.80;99.90
12811;DHT22;6470;47.654;7.896;2023-07-29T08:40:32;23.00;99.90
12811;DHT22;6470;47.654;7.896;2023-07-29T08:43:03;23.10;99.90
12811;DHT22;6470;47.654;7.896;2023-07-29T08:45:33;23.80;99.90
12811;DHT22;6470;47.654;7.896;2023-07-29T08:48:02;24.40;99.90
12811;DHT22;6470;47.654;7.896;2023-07-29T08:50:33;24.50;99.90
12811;DHT22;6470;47.654;7.896;2023-07-29T08:53:00;24.10;99.90
12811;DHT22;6470;47.654;7.896;2023-07-29T08:57:54;24.90;99.90
12811;DHT22;6470;47.654;7.896;2023-07-29T09:00:20;24.70;99.90
12811;DHT22;6470;47.654;7.896;2023-07-29T09:02:46;25.20;99.90
12811;DHT22;6470;47.654;7.896;2023-07-29T09:05:12;24.90;99.90
12811;DHT22;6470;47.654;7.896;2023-07-29T09:07:38;25.40;99.90
12811;DHT22;6470;47.654;7.896;2023-07-29T09:10:08;25.40;99.90
12811;DHT22;6470;47.654;7.896;2023-07-29T09:12:33;24.50;99.90
12811;DHT22;6470;47.654;7.896;2023-07-29T09:14:59;23.80;99.90
12811;DHT22;6470;47.654;7.896;2023-07-29T09:17:25;24.70;99.90
12811;DHT22;6470;47.654;7.896;2023-07-29T09:19:51;24.70;99.90
12811;DHT22;6470;47.654;7.896;2023-07-29T09:22:18;25.00;99.90
12811;DHT22;6470;47.654;7.896;2023-07-29T09:24:45;24.70;99.90
12811;DHT22;6470;47.654;7.896;2023-07-29T09:27:24;24.90;99.90
12811;DHT22;6470;47.654;7.896;2023-07-29T09:29:50;25.00;99.90
12811;DHT22;6470;47.654;7.896;2023-07-29T09:32:23;24.90;99.90
12811;DHT22;6470;47.654;7.896;2023-07-29T09:34:49;22.40;99.90
12811;DHT22;6470;47.654;7.896;2023-07-29T09:37:20;25.90;99.90
12811;DHT22;6470;47.654;7.896;2023-07-29T09:39:47;26.50;99.90
12811;DHT22;6470;47.654;7.896;2023-07-29T09:42:20;26.20;99.90
12811;DHT22;6470;47.654;7.896;2023-07-29T09:44:48;25.90;99.90
12811;DHT22;6470;47.654;7.896;2023-07-29T09:47:23;25.50;99.90
12811;DHT22;6470;47.654;7.896;2023-07-29T09:49:53;22.90;99.90
12811;DHT22;6470;47.654;7.896;2023-07-29T09:52:20;25.40;99.90
12811;DHT22;6470;47.654;7.896;2023-07-29T09:54:47;25.40;99.90
12811;DHT22;6470;47.654;7.896;2023-07-29T09:57:17;25.60;99.90
12811;DHT22;6470;47.654;7.896;2023-07-29T09:59:56;25.90;99.90
12811;DHT22;6470;47.654;7.896;2023-07-29T10:02:22;25.70;99.90
12811;DHT22;6470;47.654;7.896;2023-07-29T10:04:49;25.20;99.90
12811;DHT22;6470;47.654;7.896;2023-07-29T10:07:16;24.90;99.90
12811;DHT22;6470;47.654;7.896;2023-07-29T10:09:42;25.10;99.90
12811;DHT22;6470;47.654;7.896;2023-07-29T10:12:09;25.20;99.90
12811;DHT22;6470;47.654;7.896;2023-07-29T10:14:38;25.90;99.90
12811;DHT22;6470;47.654;7.896;2023-07-29T10:17:05;25.20;99.90
12811;DHT22;6470;47.654;7.896;2023-07-29T10:19:31;26.30;99.90
12811;DHT22;6470;47.654;7.896;2023-07-29T10:21:59;25.90;99.90
12811;DHT22;6470;47.654;7.896;2023-07-29T10:24:32;26.20;99.90
12811;DHT22;6470;47.654;7.896;2023-07-29T10:27:01;26.20;99.90
12811;DHT22;6470;47.654;7.896;2023-07-29T10:29:32;25.70;99.90
12811;DHT22;6470;47.654;7.896;2023-07-29T10:32:03;26.60;99.90
12811;DHT22;6470;47.654;7.896;2023-07-29T10:34:33;27.10;99.90
12811;DHT22;6470;47.654;7.896;2023-07-29T10:37:02;27.00;99.90
12811;DHT22;6470;47.654;7.896;2023-07-29T10:39:40;26.90;99.90
12811;DHT22;6470;47.654;7.896;2023-07-29T10:42:07;26.90;99.90
12811;DHT22;6470;47.654;7.896;2023-07-29T10:47:47;26.70;99.90
12811;DHT22;6470;47.654;7.896;2023-07-29T10:50:20;27.00;99.90
12811;DHT22;6470;47.654;7.896;2023-07-29T10:52:50;27.40;99.90
12811;DHT22;6470;47.654;7.896;2023-07-29T10:57:52;27.90;99.90
12811;DHT22;6470;47.654;7.896;2023-07-29T11:00:20;27.50;99.90
12811;DHT22;6470;47.654;7.896;2023-07-29T11:02:59;27.20;99.90
12811;DHT22;6470;47.654;7.896;2023-07-29T11:05:26;26.90;99.90
12811;DHT22;6470;47.654;7.896;2023-07-29T11:07:52;23.40;99.90
12811;DHT22;6470;47.654;7.896;2023-07-29T11:10:18;25.90;99.90
12811;DHT22;6470;47.654;7.896;2023-07-29T11:12:51;26.60;99.90
12811;DHT22;6470;47.654;7.896;2023-07-29T11:15:22;26.40;99.90
12811;DHT22;6470;47.654;7.896;2023-07-29T11:17:58;27.00;99.90
12811;DHT22;6470;47.654;7.896;2023-07-29T11:20:29;27.30;99.90
12811;DHT22;6470;47.654;7.896;2023-07-29T11:22:57;26.70;99.90
12811;DHT22;6470;47.654;7.896;2023-07-29T11:25:24;26.50;99.90
12811;DHT22;6470;47.654;7.896;2023-07-29T11:27:55;27.60;99.90
12811;DHT22;6470;47.654;7.896;2023-07-29T11:30:21;27.10;99.90
12811;DHT22;6470;47.654;7.896;2023-07-29T11:32:47;27.50;99.90
12811;DHT22;6470;47.654;7.896;2023-07-29T11:35:17;26.60;99.90
12811;DHT22;6470;47.654;7.896;2023-07-29T11:37:48;27.10;99.90
12811;DHT22;6470;47.654;7.896;2023-07-29T11:40:19;26.40;99.90
12811;DHT22;6470;47.654;7.896;2023-07-29T11:42:46;26.00;99.90
12811;DHT22;6470;47.654;7.896;2023-07-29T11:45:13;26.50;99.90
12811;DHT22;6470;47.654;7.896;2023-07-29T11:47:39;26.80;99.90
12811;DHT22;6470;47.654;7.896;2023-07-29T11:50:06;27.10;99.90
12811;DHT22;6470;47.654;7.896;2023-07-29T11:52:37;26.70;99.90
12811;DHT22;6470;47.654;7.896;2023-07-29T11:55:05;25.70;99.90
12811;DHT22;6470;47.654;7.896;2023-07-29T11:57:33;27.10;99.90
12811;DHT22;6470;47.654;7.896;2023-07-29T12:00:05;26.50;99.90
12811;DHT22;6470;47.654;7.896;2023-07-29T12:02:42;26.40;99.90
12811;DHT22;6470;47.654;7.896;2023-07-29T12:05:10;26.60;99.90
12811;DHT22;6470;47.654;7.896;2023-07-29T12:07:38;26.30;99.90
12811;DHT22;6470;47.654;7.896;2023-07-29T12:10:05;27.20;99.90
12811;DHT22;6470;47.654;7.896;2023-07-29T12:12:30;26.80;99.90
12811;DHT22;6470;47.654;7.896;2023-07-29T12:14:56;26.70;99.90
12811;DHT22;6470;47.654;7.896;2023-07-29T12:17:22;27.30;99.90
12811;DHT22;6470;47.654;7.896;2023-07-29T12:19:48;25.90;99.90
12811;DHT22;6470;47.654;7.896;2023-07-29T12:22:18;26.70;99.90
12811;DHT22;6470;47.654;7.896;2023-07-29T12:24:44;26.40;99.90
12811;DHT22;6470;47.654;7.896;2023-07-29T12:27:14;26.50;99.90
12811;DHT22;6470;47.654;7.896;2023-07-29T12:29:42;26.10;99.90
12811;DHT22;6470;47.654;7.896;2023-07-29T12:32:08;26.20;99.90
12811;DHT22;6470;47.654;7.896;2023-07-29T12:34:35;27.50;99.90
12811;DHT22;6470;47.654;7.896;2023-07-29T12:37:02;26.50;99.90
12811;DHT22;6470;47.654;7.896;2023-07-29T12:39:31;26.20;99.90
12811;DHT22;6470;47.654;7.896;2023-07-29T12:41:59;26.00;99.90
12811;DHT22;6470;47.654;7.896;2023-07-29T12:44:30;23.50;99.90
12811;DHT22;6470;47.654;7.896;2023-07-29T12:49:22;26.40;99.90
12811;DHT22;6470;47.654;7.896;2023-07-29T12:51:48;26.00;99.90
12811;DHT22;6470;47.654;7.896;2023-07-29T12:54:14;25.90;99.90
12811;DHT22;6470;47.654;7.896;2023-07-29T12:56:40;26.00;99.90
12811;DHT22;6470;47.654;7.896;2023-07-29T12:59:05;25.70;99.90
12811;DHT22;6470;47.654;7.896;2023-07-29T13:01:31;25.70;99.90
12811;DHT22;6470;47.654;7.896;2023-07-29T13:03:57;25.80;99.90
12811;DHT22;6470;47.654;7.896;2023-07-29T13:06:23;25.70;99.90
12811;DHT22;6470;47.654;7.896;2023-07-29T13:08:49;25.20;99.90
12811;DHT22;6470;47.654;7.896;2023-07-29T13:11:16;25.40;99.90
12811;DHT22;6470;47.654;7.896;2023-07-29T13:13:42;25.50;99.90
12811;DHT22;6470;47.654;7.896;2023-07-29T13:16:07;25.10;99.90
12811;DHT22;6470;47.654;7.896;2023-07-29T13:18:33;25.00;99.90
12811;DHT22;6470;47.654;7.896;2023-07-29T13:20:59;24.70;99.90
12811;DHT22;6470;47.654;7.896;2023-07-29T13:23:26;24.30;99.90
12811;DHT22;6470;47.654;7.896;2023-07-29T13:25:52;25.00;99.90
12811;DHT22;6470;47.654;7.896;2023-07-29T13:28:18;25.20;99.90
12811;DHT22;6470;47.654;7.896;2023-07-29T13:30:45;22.10;99.90
12811;DHT22;6470;47.654;7.896;2023-07-29T13:33:11;24.80;99.90
12811;DHT22;6470;47.654;7.896;2023-07-29T13:38:02;24.60;99.90
12811;DHT22;6470;47.654;7.896;2023-07-29T13:40:28;24.60;99.90
12811;DHT22;6470;47.654;7.896;2023-07-29T13:42:54;25.30;99.90
12811;DHT22;6470;47.654;7.896;2023-07-29T13:45:21;24.60;99.90
12811;DHT22;6470;47.654;7.896;2023-07-29T13:47:47;24.10;99.90
12811;DHT22;6470;47.654;7.896;2023-07-29T13:50:13;24.40;99.90
12811;DHT22;6470;47.654;7.896;2023-07-29T13:52:39;25.00;99.90
12811;DHT22;6470;47.654;7.896;2023-07-29T13:55:05;23.90;99.90
12811;DHT22;6470;47.654;7.896;2023-07-29T13:57:31;23.90;99.90
12811;DHT22;6470;47.654;7.896;2023-07-29T13:59:57;22.80;99.90
12811;DHT22;6470;47.654;7.896;2023-07-29T14:02:23;23.00;99.90
12811;DHT22;6470;47.654;7.896;2023-07-29T14:04:49;23.30;99.90
12811;DHT22;6470;47.654;7.896;2023-07-29T14:07:15;22.60;99.90
12811;DHT22;6470;47.654;7.896;2023-07-29T14:09:40;22.70;99.90
12811;DHT22;6470;47.654;7.896;2023-07-29T14:12:08;22.50;99.90
12811;DHT22;6470;47.654;7.896;2023-07-29T14:14:38;22.40;99.90
12811;DHT22;6470;47.654;7.896;2023-07-29T14:17:04;21.80;99.90
12811;DHT22;6470;47.654;7.896;2023-07-29T14:19:30;22.40;99.90
12811;DHT22;6470;47.654;7.896;2023-07-29T14:21:56;22.70;99.90
12811;DHT22;6470;47.654;7.896;2023-07-29T14:24:22;22.50;99.90
12811;DHT22;6470;47.654;7.896;2023-07-29T14:26:48;22.10;99.90
12811;DHT22;6470;47.654;7.896;2023-07-29T14:31:40;22.60;99.90
12811;DHT22;6470;47.654;7.896;2023-07-29T14:34:05;22.20;99.90
12811;DHT22;6470;47.654;7.896;2023-07-29T14:36:31;23.10;99.90
12811;DHT22;6470;47.654;7.896;2023-07-29T14:38:57;22.50;99.90
12811;DHT22;6470;47.654;7.896;2023-07-29T14:41:22;22.60;99.90
12811;DHT22;6470;47.654;7.896;2023-07-29T14:43:48;22.50;99.90
12811;DHT22;6470;47.654;7.896;2023-07-29T14:46:14;22.70;99.90
12811;DHT22;6470;47.654;7.896;2023-07-29T14:51:05;22.40;99.90
12811;DHT22;6470;47.654;7.896;2023-07-29T14:53:31;22.90;99.90
12811;DHT22;6470;47.654;7.896;2023-07-29T14:55:57;22.90;99.90
12811;DHT22;6470;47.654;7.896;2023-07-29T14:58:22;22.40;99.90
12811;DHT22;6470;47.654;7.896;2023-07-29T15:00:51;21.90;99.90
12811;DHT22;6470;47.654;7.896;2023-07-29T15:03:17;21.50;99.90
12811;DHT22;6470;47.654;7.896;2023-07-29T15:05:43;22.10;99.90
12811;DHT22;6470;47.654;7.896;2023-07-29T15:08:09;21.60;99.90
12811;DHT22;6470;47.654;7.896;2023-07-29T15:10:34;21.90;99.90
12811;DHT22;6470;47.654;7.896;2023-07-29T15:13:00;21.10;99.90
12811;DHT22;6470;47.654;7.896;2023-07-29T15:15:26;21.50;99.90
12811;DHT22;6470;47.654;7.896;2023-07-29T15:17:51;21.80;99.90
12811;DHT22;6470;47.654;7.896;2023-07-29T15:20:17;21.30;99.90
12811;DHT22;6470;47.654;7.896;2023-07-29T15:22:43;22.30;99.90
12811;DHT22;6470;47.654;7.896;2023-07-29T15:25:09;20.50;99.90
12811;DHT22;6470;47.654;7.896;2023-07-29T15:27:35;18.70;99.90
12811;DHT22;6470;47.654;7.896;2023-07-29T15:32:27;21.80;99.90
12811;DHT22;6470;47.654;7.896;2023-07-29T15:34:53;21.90;99.90
12811;DHT22;6470;47.654;7.896;2023-07-29T15:37:19;21.30;99.90
12811;DHT22;6470;47.654;7.896;2023-07-29T15:42:11;21.40;99.90
12811;DHT22;6470;47.654;7.896;2023-07-29T15:44:37;22.20;99.90
12811;DHT22;6470;47.654;7.896;2023-07-29T15:47:03;21.70;99.90
12811;DHT22;6470;47.654;7.896;2023-07-29T15:49:29;18.90;99.90
12811;DHT22;6470;47.654;7.896;2023-07-29T15:54:20;22.70;99.90
12811;DHT22;6470;47.654;7.896;2023-07-29T15:56:46;22.10;99.90
12811;DHT22;6470;47.654;7.896;2023-07-29T16:01:38;20.80;99.90
12811;DHT22;6470;47.654;7.896;2023-07-29T16:06:29;21.40;99.90
12811;DHT22;6470;47.654;7.896;2023-07-29T16:08:55;21.20;99.90
12811;DHT22;6470;47.654;7.896;2023-07-29T16:11:21;21.90;99.90
12811;DHT22;6470;47.654;7.896;2023-07-29T16:13:47;22.10;99.90
12811;DHT22;6470;47.654;7.896;2023-07-29T16:16:13;21.70;99.90
12811;DHT22;6470;47.654;7.896;2023-07-29T16:18:39;22.30;99.90
12811;DHT22;6470;47.654;7.896;2023-07-29T16:21:04;22.00;99.90
12811;DHT22;6470;47.654;7.896;2023-07-29T16:23:32;22.00;99.90
12811;DHT22;6470;47.654;7.896;2023-07-29T16:25:58;22.10;99.90
12811;DHT22;6470;47.654;7.896;2023-07-29T16:28:24;21.80;99.90
12811;DHT22;6470;47.654;7.896;2023-07-29T16:30:50;21.90;99.90
12811;DHT22;6470;47.654;7.896;2023-07-29T16:33:16;21.70;99.90
12811;DHT22;6470;47.654;7.896;2023-07-29T16:35:41;22.10;99.90
12811;DHT22;6470;47.654;7.896;2023-07-29T16:38:07;21.80;99.90
12811;DHT22;6470;47.654;7.896;2023-07-29T16:40:33;21.80;99.90